sensor_id;sensor_type;location;lat;lon;timestamp;pressure;altitude;pressure_sealevel;temperature;humidity
21096;BME280;10706;49.036;12.112;2023-02-12T00:01:45;99588.22;;;2.40;85.25
21096;BME280;10706;49.036;12.112;2023-02-12T00:04:11;99584.38;;;2.44;84.56
21096;BME280;10706;49.036;12.112;2023-02-12T00:06:37;99583.53;;;2.44;84.63
21096;BME280;10706;49.036;12.112;2023-02-12T00:09:05;99584.22;;;2.46;84.26
21096;BME280;10706;49.036;12.112;2023-02-12T00:11:30;99577.03;;;2.48;84.79
21096;BME280;10706;49.036;12.112;2023-02-12T00:13:57;99567.00;;;2.32;84.11
21096;BME280;10706;49.036;12.112;2023-02-12T00:16:26;99568.81;;;2.31;84.77
21096;BME280;10706;49.036;12.112;2023-02-12T00:18:54;99576.16;;;2.28;85.27
21096;BME280;10706;49.036;12.112;2023-02-12T00:21:21;99570.88;;;2.28;84.70
21096;BME280;10706;49.036;12.112;2023-02-12T00:23:47;99564.22;;;2.33;84.24
21096;BME280;10706;49.036;12.112;2023-02-12T00:26:17;99570.47;;;2.32;86.66
21096;BME280;10706;49.036;12.112;2023-02-12T00:28:43;99570.88;;;2.28;86.31
21096;BME280;10706;49.036;12.112;2023-02-12T00:31:19;99575.16;;;2.29;87.89
21096;BME280;10706;49.036;12.112;2023-02-12T00:33:45;99581.03;;;2.42;86.51
21096;BME280;10706;49.036;12.112;2023-02-12T00:36:18;99581.19;;;2.50;87.77
21096;BME280;10706;49.036;12.112;2023-02-12T00:38:45;99570.91;;;2.47;87.30
21096;BME280;10706;49.036;12.112;2023-02-12T00:41:11;99574.78;;;2.53;86.24
21096;BME280;10706;49.036;12.112;2023-02-12T00:43:37;99579.94;;;2.55;86.44
21096;BME280;10706;49.036;12.112;2023-02-12T00:46:03;99597.25;;;2.47;86.74
21096;BME280;10706;49.036;12.112;2023-02-12T00:48:30;99594.91;;;2.44;87.14
21096;BME280;10706;49.036;12.112;2023-02-12T00:50:56;99594.38;;;2.50;87.10
21096;BME280;10706;49.036;12.112;2023-02-12T00:53:21;99602.97;;;2.62;88.71
21096;BME280;10706;49.036;12.112;2023-02-12T00:55:47;99595.75;;;2.55;89.60
21096;BME280;10706;49.036;12.112;2023-02-12T00:58:13;99602.28;;;2.60;88.87
21096;BME280;10706;49.036;12.112;2023-02-12T01:00:39;99595.34;;;2.69;88.02
21096;BME280;10706;49.036;12.112;2023-02-12T01:03:04;99590.34;;;2.66;89.03
21096;BME280;10706;49.036;12.112;2023-02-12T01:05:31;99592.97;;;2.56;88.60
21096;BME280;10706;49.036;12.112;2023-02-12T01:07:57;99604.09;;;2.50;87.58
21096;BME280;10706;49.036;12.112;2023-02-12T01:10:23;99602.69;;;2.56;87.93
21096;BME280;10706;49.036;12.112;2023-02-12T01:12:49;99616.97;;;2.53;88.56
21096;BME280;10706;49.036;12.112;2023-02-12T01:15:16;99610.88;;;2.43;86.70
21096;BME280;10706;49.036;12.112;2023-02-12T01:17:43;99614.56;;;2.30;85.97
21096;BME280;10706;49.036;12.112;2023-02-12T01:20:13;99615.66;;;2.18;87.28
21096;BME280;10706;49.036;12.112;2023-02-12T01:22:39;99613.84;;;2.09;86.14
21096;BME280;10706;49.036;12.112;2023-02-12T01:25:06;99615.34;;;2.02;87.20
21096;BME280;10706;49.036;12.112;2023-02-12T01:27:32;99611.44;;;1.96;85.96
21096;BME280;10706;49.036;12.112;2023-02-12T01:29:58;99600.47;;;1.91;86.25
21096;BME280;10706;49.036;12.112;2023-02-12T01:32:24;99607.28;;;1.93;87.37
21096;BME280;10706;49.036;12.112;2023-02-12T01:34:50;99610.75;;;1.94;85.87
21096;BME280;10706;49.036;12.112;2023-02-12T01:37:16;99604.91;;;1.90;86.29
21096;BME280;10706;49.036;12.112;2023-02-12T01:39:41;99600.06;;;1.96;87.52
21096;BME280;10706;49.036;12.112;2023-02-12T01:42:12;99600.91;;;2.06;86.11
21096;BME280;10706;49.036;12.112;2023-02-12T01:44:44;99604.38;;;2.06;85.27
21096;BME280;10706;49.036;12.112;2023-02-12T01:47:29;99609.25;;;2.01;86.12
21096;BME280;10706;49.036;12.112;2023-02-12T01:49:55;99604.81;;;2.02;86.53
21096;BME280;10706;49.036;12.112;2023-02-12T01:52:31;99609.94;;;2.03;87.60
21096;BME280;10706;49.036;12.112;2023-02-12T01:55:02;99603.56;;;2.06;87.93
21096;BME280;10706;49.036;12.112;2023-02-12T01:57:32;99610.91;;;2.12;87.37
21096;BME280;10706;49.036;12.112;2023-02-12T02:00:01;99607.06;;;2.16;88.03
21096;BME280;10706;49.036;12.112;2023-02-12T02:02:30;99606.78;;;2.19;88.85
21096;BME280;10706;49.036;12.112;2023-02-12T02:04:59;99613.19;;;2.26;88.80
21096;BME280;10706;49.036;12.112;2023-02-12T02:07:27;99620.25;;;2.26;88.60
21096;BME280;10706;49.036;12.112;2023-02-12T02:09:53;99613.59;;;2.22;88.50
21096;BME280;10706;49.036;12.112;2023-02-12T02:12:20;99622.78;;;2.27;89.36
21096;BME280;10706;49.036;12.112;2023-02-12T02:15:05;99621.09;;;2.36;89.74
21096;BME280;10706;49.036;12.112;2023-02-12T02:17:40;99617.66;;;2.45;89.59
21096;BME280;10706;49.036;12.112;2023-02-12T02:32:05;99608.34;;;2.31;90.82
21096;BME280;10706;49.036;12.112;2023-02-12T02:34:42;99610.69;;;2.34;90.42
21096;BME280;10706;49.036;12.112;2023-02-12T02:37:18;99611.78;;;2.22;90.47
21096;BME280;10706;49.036;12.112;2023-02-12T02:40:08;99610.41;;;2.28;91.74
21096;BME280;10706;49.036;12.112;2023-02-12T02:42:43;99608.75;;;2.27;90.04
21096;BME280;10706;49.036;12.112;2023-02-12T02:47:57;99616.47;;;2.09;91.50
21096;BME280;10706;49.036;12.112;2023-02-12T02:50:27;99614.09;;;2.06;91.56
21096;BME280;10706;49.036;12.112;2023-02-12T02:53:11;99616.06;;;2.13;91.75
21096;BME280;10706;49.036;12.112;2023-02-12T02:55:45;99614.00;;;2.17;91.65
21096;BME280;10706;49.036;12.112;2023-02-12T02:58:16;99618.31;;;2.18;91.56
21096;BME280;10706;49.036;12.112;2023-02-12T03:03:31;99618.28;;;2.08;92.91
21096;BME280;10706;49.036;12.112;2023-02-12T03:06:05;99616.97;;;1.93;95.01
21096;BME280;10706;49.036;12.112;2023-02-12T03:08:38;99611.13;;;1.89;94.50
21096;BME280;10706;49.036;12.112;2023-02-12T03:11:16;99615.56;;;1.89;94.55
21096;BME280;10706;49.036;12.112;2023-02-12T03:13:56;99614.19;;;1.94;95.60
21096;BME280;10706;49.036;12.112;2023-02-12T03:16:28;99615.56;;;1.89;94.98
21096;BME280;10706;49.036;12.112;2023-02-12T03:19:25;99623.91;;;1.94;95.29
21096;BME280;10706;49.036;12.112;2023-02-12T03:22:26;99626.53;;;1.94;97.92
21096;BME280;10706;49.036;12.112;2023-02-12T03:25:00;99620.56;;;1.92;97.36
21096;BME280;10706;49.036;12.112;2023-02-12T03:27:32;99624.88;;;1.93;97.83
21096;BME280;10706;49.036;12.112;2023-02-12T03:30:00;99623.38;;;2.00;98.19
21096;BME280;10706;49.036;12.112;2023-02-12T03:33:04;99625.56;;;1.95;97.03
21096;BME280;10706;49.036;12.112;2023-02-12T03:35:41;99631.38;;;1.89;97.26
21096;BME280;10706;49.036;12.112;2023-02-12T03:38:13;99638.13;;;1.82;99.08
21096;BME280;10706;49.036;12.112;2023-02-12T03:43:55;99645.91;;;1.83;99.59
21096;BME280;10706;49.036;12.112;2023-02-12T03:46:40;99644.28;;;1.92;99.68
21096;BME280;10706;49.036;12.112;2023-02-12T03:51:44;99645.19;;;1.81;99.90
21096;BME280;10706;49.036;12.112;2023-02-12T03:54:13;99653.50;;;1.77;100.00
21096;BME280;10706;49.036;12.112;2023-02-12T03:56:56;99653.19;;;1.70;100.00
21096;BME280;10706;49.036;12.112;2023-02-12T03:59:25;99643.06;;;1.65;100.00
21096;BME280;10706;49.036;12.112;2023-02-12T04:01:53;99646.22;;;1.69;100.00
21096;BME280;10706;49.036;12.112;2023-02-12T04:04:20;99656.25;;;1.75;100.00
21096;BME280;10706;49.036;12.112;2023-02-12T04:06:48;99658.03;;;1.74;100.00
21096;BME280;10706;49.036;12.112;2023-02-12T04:09:15;99655.94;;;1.68;100.00
21096;BME280;10706;49.036;12.112;2023-02-12T04:15:01;99663.72;;;1.70;100.00
21096;BME280;10706;49.036;12.112;2023-02-12T04:17:48;99666.25;;;1.81;100.00
21096;BME280;10706;49.036;12.112;2023-02-12T04:23:11;99667.41;;;1.88;100.00
21096;BME280;10706;49.036;12.112;2023-02-12T04:26:34;99661.03;;;1.91;100.00
21096;BME280;10706;49.036;12.112;2023-02-12T04:34:53;99670.84;;;1.79;100.00
21096;BME280;10706;49.036;12.112;2023-02-12T04:37:40;99667.22;;;1.80;99.69
21096;BME280;10706;49.036;12.112;2023-02-12T04:40:12;99673.75;;;1.86;99.62
21096;BME280;10706;49.036;12.112;2023-02-12T04:42:48;99672.63;;;1.79;100.00
21096;BME280;10706;49.036;12.112;2023-02-12T04:45:21;99671.78;;;1.78;99.34
21096;BME280;10706;49.036;12.112;2023-02-12T04:47:47;99677.50;;;1.83;100.00
21096;BME280;10706;49.036;12.112;2023-02-12T04:50:13;99683.59;;;1.84;99.34
21096;BME280;10706;49.036;12.112;2023-02-12T04:52:39;99684.03;;;1.89;100.00
21096;BME280;10706;49.036;12.112;2023-02-12T04:55:05;99683.66;;;1.93;99.59
21096;BME280;10706;49.036;12.112;2023-02-12T04:57:31;99682.56;;;1.96;100.00
21096;BME280;10706;49.036;12.112;2023-02-12T04:59:56;99679.34;;;1.92;99.46
21096;BME280;10706;49.036;12.112;2023-02-12T05:02:22;99687.13;;;1.94;99.37
21096;BME280;10706;49.036;12.112;2023-02-12T05:04:49;99681.59;;;1.97;100.00
21096;BME280;10706;49.036;12.112;2023-02-12T05:07:15;99684.09;;;1.99;100.00
21096;BME280;10706;49.036;12.112;2023-02-12T05:09:40;99681.81;;;1.84;99.47
21096;BME280;10706;49.036;12.112;2023-02-12T05:12:07;99692.53;;;1.92;99.53
21096;BME280;10706;49.036;12.112;2023-02-12T05:14:33;99692.28;;;1.96;100.00
21096;BME280;10706;49.036;12.112;2023-02-12T05:16:58;99685.06;;;1.98;99.13
21096;BME280;10706;49.036;12.112;2023-02-12T05:19:24;99690.13;;;1.89;99.30
21096;BME280;10706;49.036;12.112;2023-02-12T05:21:50;99695.16;;;1.92;100.00
21096;BME280;10706;49.036;12.112;2023-02-12T05:24:16;99688.94;;;1.93;99.58
21096;BME280;10706;49.036;12.112;2023-02-12T05:26:42;99693.78;;;1.98;99.97
21096;BME280;10706;49.036;12.112;2023-02-12T05:29:08;99704.09;;;2.01;99.12
21096;BME280;10706;49.036;12.112;2023-02-12T05:31:34;99698.94;;;2.00;98.92
21096;BME280;10706;49.036;12.112;2023-02-12T05:34:00;99695.81;;;1.85;99.03
21096;BME280;10706;49.036;12.112;2023-02-12T05:36:26;99698.44;;;1.85;100.00
21096;BME280;10706;49.036;12.112;2023-02-12T05:38:56;99698.81;;;1.80;99.89
21096;BME280;10706;49.036;12.112;2023-02-12T05:41:23;99701.91;;;1.85;100.00
21096;BME280;10706;49.036;12.112;2023-02-12T05:43:50;99700.50;;;1.81;100.00
21096;BME280;10706;49.036;12.112;2023-02-12T05:46:18;99702.88;;;1.84;100.00
21096;BME280;10706;49.036;12.112;2023-02-12T05:48:45;99703.72;;;1.85;100.00
21096;BME280;10706;49.036;12.112;2023-02-12T05:51:17;99704.66;;;1.84;100.00
21096;BME280;10706;49.036;12.112;2023-02-12T05:53:46;99703.53;;;1.77;100.00
21096;BME280;10706;49.036;12.112;2023-02-12T05:56:21;99707.19;;;1.85;100.00
21096;BME280;10706;49.036;12.112;2023-02-12T05:58:54;99702.44;;;1.79;100.00
21096;BME280;10706;49.036;12.112;2023-02-12T06:01:34;99699.81;;;1.79;100.00
21096;BME280;10706;49.036;12.112;2023-02-12T06:04:03;99708.00;;;1.86;100.00
21096;BME280;10706;49.036;12.112;2023-02-12T06:06:29;99705.66;;;1.83;100.00
21096;BME280;10706;49.036;12.112;2023-02-12T06:08:57;99701.19;;;1.83;100.00
21096;BME280;10706;49.036;12.112;2023-02-12T06:11:23;99702.59;;;1.87;100.00
21096;BME280;10706;49.036;12.112;2023-02-12T06:13:49;99711.66;;;1.94;100.00
21096;BME280;10706;49.036;12.112;2023-02-12T06:16:17;99715.69;;;1.99;100.00
21096;BME280;10706;49.036;12.112;2023-02-12T06:18:43;99716.16;;;2.04;100.00
21096;BME280;10706;49.036;12.112;2023-02-12T06:21:08;99725.31;;;2.09;100.00
21096;BME280;10706;49.036;12.112;2023-02-12T06:23:34;99720.63;;;2.13;100.00
21096;BME280;10706;49.036;12.112;2023-02-12T06:26:00;99724.94;;;2.14;100.00
21096;BME280;10706;49.036;12.112;2023-02-12T06:28:26;99731.88;;;2.15;100.00
21096;BME280;10706;49.036;12.112;2023-02-12T06:30:51;99738.38;;;2.11;100.00
21096;BME280;10706;49.036;12.112;2023-02-12T06:33:17;99738.50;;;2.09;100.00
21096;BME280;10706;49.036;12.112;2023-02-12T06:35:43;99740.44;;;2.07;100.00
21096;BME280;10706;49.036;12.112;2023-02-12T06:38:10;99741.97;;;2.10;100.00
21096;BME280;10706;49.036;12.112;2023-02-12T06:40:35;99735.22;;;2.17;100.00
21096;BME280;10706;49.036;12.112;2023-02-12T06:43:01;99742.53;;;2.13;100.00
21096;BME280;10706;49.036;12.112;2023-02-12T06:45:27;99743.13;;;2.17;100.00
21096;BME280;10706;49.036;12.112;2023-02-12T06:47:53;99750.22;;;2.26;100.00
21096;BME280;10706;49.036;12.112;2023-02-12T06:50:18;99755.53;;;2.36;100.00
21096;BME280;10706;49.036;12.112;2023-02-12T06:52:44;99754.06;;;2.43;100.00
21096;BME280;10706;49.036;12.112;2023-02-12T06:55:10;99756.31;;;2.48;100.00
21096;BME280;10706;49.036;12.112;2023-02-12T06:57:36;99751.72;;;2.50;100.00
21096;BME280;10706;49.036;12.112;2023-02-12T07:00:02;99750.94;;;2.59;100.00
21096;BME280;10706;49.036;12.112;2023-02-12T07:02:28;99751.50;;;2.63;100.00
21096;BME280;10706;49.036;12.112;2023-02-12T07:04:53;99752.31;;;2.63;100.00
21096;BME280;10706;49.036;12.112;2023-02-12T07:07:19;99754.53;;;2.68;100.00
21096;BME280;10706;49.036;12.112;2023-02-12T07:09:45;99747.63;;;2.67;100.00
21096;BME280;10706;49.036;12.112;2023-02-12T07:12:11;99753.22;;;2.43;100.00
21096;BME280;10706;49.036;12.112;2023-02-12T07:14:36;99755.66;;;2.34;100.00
21096;BME280;10706;49.036;12.112;2023-02-12T07:17:02;99751.41;;;2.43;100.00
21096;BME280;10706;49.036;12.112;2023-02-12T07:19:30;99757.25;;;2.47;100.00
21096;BME280;10706;49.036;12.112;2023-02-12T07:21:56;99761.56;;;2.48;100.00
21096;BME280;10706;49.036;12.112;2023-02-12T07:24:21;99768.13;;;2.53;100.00
21096;BME280;10706;49.036;12.112;2023-02-12T07:26:47;99763.69;;;2.64;100.00
21096;BME280;10706;49.036;12.112;2023-02-12T07:29:13;99759.69;;;2.69;100.00
21096;BME280;10706;49.036;12.112;2023-02-12T07:31:39;99769.28;;;2.70;99.42
21096;BME280;10706;49.036;12.112;2023-02-12T07:34:05;99770.41;;;2.78;100.00
21096;BME280;10706;49.036;12.112;2023-02-12T07:36:32;99766.94;;;2.77;100.00
21096;BME280;10706;49.036;12.112;2023-02-12T07:38:59;99760.38;;;2.71;100.00
21096;BME280;10706;49.036;12.112;2023-02-12T07:41:29;99760.63;;;2.59;100.00
21096;BME280;10706;49.036;12.112;2023-02-12T07:44:02;99764.25;;;2.58;99.87
21096;BME280;10706;49.036;12.112;2023-02-12T07:46:31;99760.38;;;2.62;98.99
21096;BME280;10706;49.036;12.112;2023-02-12T07:49:00;99768.16;;;2.63;99.44
21096;BME280;10706;49.036;12.112;2023-02-12T07:51:27;99763.31;;;2.68;98.12
21096;BME280;10706;49.036;12.112;2023-02-12T07:53:53;99758.28;;;2.56;100.00
21096;BME280;10706;49.036;12.112;2023-02-12T07:56:22;99763.53;;;2.56;99.80
21096;BME280;10706;49.036;12.112;2023-02-12T07:58:51;99766.69;;;2.49;99.61
21096;BME280;10706;49.036;12.112;2023-02-12T08:01:20;99750.78;;;2.61;100.00
21096;BME280;10706;49.036;12.112;2023-02-12T08:03:48;99756.94;;;2.81;99.69
21096;BME280;10706;49.036;12.112;2023-02-12T08:06:17;99756.56;;;2.95;98.83
21096;BME280;10706;49.036;12.112;2023-02-12T08:08:45;99756.56;;;2.95;99.08
21096;BME280;10706;49.036;12.112;2023-02-12T08:11:12;99763.81;;;3.03;98.56
21096;BME280;10706;49.036;12.112;2023-02-12T08:13:39;99759.66;;;3.20;98.84
21096;BME280;10706;49.036;12.112;2023-02-12T08:16:14;99765.06;;;3.28;98.29
21096;BME280;10706;49.036;12.112;2023-02-12T08:18:40;99769.25;;;3.60;97.66
21096;BME280;10706;49.036;12.112;2023-02-12T08:21:15;99773.69;;;3.79;96.39
21096;BME280;10706;49.036;12.112;2023-02-12T08:23:43;99766.16;;;3.84;96.52
21096;BME280;10706;49.036;12.112;2023-02-12T08:26:16;99768.31;;;4.18;95.50
21096;BME280;10706;49.036;12.112;2023-02-12T08:28:48;99770.25;;;4.25;94.05
21096;BME280;10706;49.036;12.112;2023-02-12T08:31:44;99770.88;;;4.00;94.84
21096;BME280;10706;49.036;12.112;2023-02-12T08:34:32;99775.03;;;4.12;95.89
21096;BME280;10706;49.036;12.112;2023-02-12T08:36:59;99781.97;;;4.03;94.77
21096;BME280;10706;49.036;12.112;2023-02-12T08:39:27;99778.91;;;4.18;94.80
21096;BME280;10706;49.036;12.112;2023-02-12T08:41:54;99770.41;;;4.14;94.59
21096;BME280;10706;49.036;12.112;2023-02-12T08:44:20;99780.19;;;4.04;96.23
21096;BME280;10706;49.036;12.112;2023-02-12T08:46:49;99779.19;;;4.05;95.40
21096;BME280;10706;49.036;12.112;2023-02-12T08:49:24;99775.47;;;4.07;96.13
21096;BME280;10706;49.036;12.112;2023-02-12T08:51:53;99780.22;;;4.41;94.51
21096;BME280;10706;49.036;12.112;2023-02-12T08:54:26;99782.88;;;4.32;93.85
21096;BME280;10706;49.036;12.112;2023-02-12T08:56:57;99783.13;;;4.48;94.58
21096;BME280;10706;49.036;12.112;2023-02-12T08:59:23;99783.81;;;4.50;93.93
21096;BME280;10706;49.036;12.112;2023-02-12T09:01:51;99783.34;;;4.64;93.04
21096;BME280;10706;49.036;12.112;2023-02-12T09:04:22;99777.19;;;4.92;92.63
21096;BME280;10706;49.036;12.112;2023-02-12T09:06:50;99781.81;;;4.90;92.04
21096;BME280;10706;49.036;12.112;2023-02-12T09:09:16;99780.81;;;5.18;91.75
21096;BME280;10706;49.036;12.112;2023-02-12T09:11:42;99773.72;;;5.37;90.81
21096;BME280;10706;49.036;12.112;2023-02-12T09:14:14;99787.25;;;5.34;88.52
21096;BME280;10706;49.036;12.112;2023-02-12T09:16:40;99790.09;;;5.04;89.83
21096;BME280;10706;49.036;12.112;2023-02-12T09:19:07;99788.47;;;5.39;90.11
21096;BME280;10706;49.036;12.112;2023-02-12T09:21:33;99793.00;;;5.29;89.67
21096;BME280;10706;49.036;12.112;2023-02-12T09:24:01;99792.09;;;5.38;88.86
21096;BME280;10706;49.036;12.112;2023-02-12T09:26:28;99791.28;;;5.56;88.09
21096;BME280;10706;49.036;12.112;2023-02-12T09:28:55;99793.47;;;5.42;88.34
21096;BME280;10706;49.036;12.112;2023-02-12T09:31:29;99788.91;;;5.53;87.97
21096;BME280;10706;49.036;12.112;2023-02-12T09:34:05;99799.34;;;5.36;89.11
21096;BME280;10706;49.036;12.112;2023-02-12T09:36:32;99794.28;;;5.61;88.81
21096;BME280;10706;49.036;12.112;2023-02-12T09:38:58;99792.38;;;5.89;87.13
21096;BME280;10706;49.036;12.112;2023-02-12T09:44:57;99798.91;;;5.41;88.48
21096;BME280;10706;49.036;12.112;2023-02-12T09:47:35;99799.28;;;5.64;88.19
21096;BME280;10706;49.036;12.112;2023-02-12T09:50:55;99792.22;;;5.91;87.41
21096;BME280;10706;49.036;12.112;2023-02-12T09:53:27;99802.53;;;5.94;86.60
21096;BME280;10706;49.036;12.112;2023-02-12T09:55:57;99795.28;;;5.96;86.62
21096;BME280;10706;49.036;12.112;2023-02-12T09:58:48;99798.69;;;5.52;87.88
21096;BME280;10706;49.036;12.112;2023-02-12T10:01:17;99804.28;;;6.03;86.54
21096;BME280;10706;49.036;12.112;2023-02-12T10:03:49;99804.16;;;6.31;85.23
21096;BME280;10706;49.036;12.112;2023-02-12T10:09:01;99804.88;;;6.41;85.08
21096;BME280;10706;49.036;12.112;2023-02-12T10:17:41;99806.25;;;6.01;85.95
21096;BME280;10706;49.036;12.112;2023-02-12T10:20:30;99801.69;;;6.11;86.05
21096;BME280;10706;49.036;12.112;2023-02-12T10:23:33;99805.38;;;6.45;84.65
21096;BME280;10706;49.036;12.112;2023-02-12T10:28:40;99806.41;;;6.86;82.44
21096;BME280;10706;49.036;12.112;2023-02-12T10:31:29;99802.44;;;6.90;82.41
21096;BME280;10706;49.036;12.112;2023-02-12T10:33:55;99796.56;;;7.21;81.94
21096;BME280;10706;49.036;12.112;2023-02-12T10:36:44;99806.59;;;7.52;80.17
21096;BME280;10706;49.036;12.112;2023-02-12T10:39:13;99804.59;;;7.46;79.53
21096;BME280;10706;49.036;12.112;2023-02-12T10:41:57;99810.09;;;7.69;81.08
21096;BME280;10706;49.036;12.112;2023-02-12T10:44:26;99799.66;;;7.75;78.93
21096;BME280;10706;49.036;12.112;2023-02-12T10:46:52;99804.31;;;7.98;79.84
21096;BME280;10706;49.036;12.112;2023-02-12T10:49:19;99812.25;;;8.23;78.29
21096;BME280;10706;49.036;12.112;2023-02-12T10:52:11;99804.91;;;8.49;75.44
21096;BME280;10706;49.036;12.112;2023-02-12T10:54:46;99796.88;;;8.66;73.50
21096;BME280;10706;49.036;12.112;2023-02-12T10:57:30;99795.47;;;7.97;77.70
21096;BME280;10706;49.036;12.112;2023-02-12T11:00:34;99799.97;;;7.89;77.77
21096;BME280;10706;49.036;12.112;2023-02-12T11:05:42;99796.47;;;7.80;78.56
21096;BME280;10706;49.036;12.112;2023-02-12T11:08:34;99795.31;;;7.91;76.89
21096;BME280;10706;49.036;12.112;2023-02-12T11:13:46;99792.66;;;8.07;77.46
21096;BME280;10706;49.036;12.112;2023-02-12T11:16:34;99797.31;;;8.13;77.02
21096;BME280;10706;49.036;12.112;2023-02-12T11:19:04;99787.66;;;8.12;76.22
21096;BME280;10706;49.036;12.112;2023-02-12T11:21:32;99784.63;;;8.24;77.11
21096;BME280;10706;49.036;12.112;2023-02-12T11:29:44;99775.00;;;8.23;77.03
21096;BME280;10706;49.036;12.112;2023-02-12T11:32:19;99776.06;;;8.69;74.53
21096;BME280;10706;49.036;12.112;2023-02-12T11:37:42;99771.91;;;8.67;76.13
21096;BME280;10706;49.036;12.112;2023-02-12T11:40:34;99773.66;;;8.27;76.74
21096;BME280;10706;49.036;12.112;2023-02-12T11:43:04;99782.16;;;8.14;78.03
21096;BME280;10706;49.036;12.112;2023-02-12T11:50:53;99775.84;;;8.15;76.81
21096;BME280;10706;49.036;12.112;2023-02-12T11:53:32;99780.97;;;8.33;76.35
21096;BME280;10706;49.036;12.112;2023-02-12T11:56:03;99776.34;;;8.10;75.61
21096;BME280;10706;49.036;12.112;2023-02-12T11:58:30;99771.06;;;7.94;77.69
21096;BME280;10706;49.036;12.112;2023-02-12T12:03:59;99780.78;;;8.43;76.60
21096;BME280;10706;49.036;12.112;2023-02-12T12:14:36;99786.78;;;8.20;75.75
21096;BME280;10706;49.036;12.112;2023-02-12T12:17:34;99781.50;;;7.95;77.13
21096;BME280;10706;49.036;12.112;2023-02-12T12:20:26;99775.22;;;7.72;78.57
21096;BME280;10706;49.036;12.112;2023-02-12T12:25:48;99771.22;;;7.92;78.12
21096;BME280;10706;49.036;12.112;2023-02-12T12:31:33;99774.03;;;8.07;78.15
21096;BME280;10706;49.036;12.112;2023-02-12T12:34:22;99765.34;;;8.22;77.38
21096;BME280;10706;49.036;12.112;2023-02-12T12:37:16;99767.34;;;8.20;77.36
21096;BME280;10706;49.036;12.112;2023-02-12T12:39:47;99768.09;;;8.61;76.60
21096;BME280;10706;49.036;12.112;2023-02-12T12:46:33;99761.03;;;9.39;70.95
21096;BME280;10706;49.036;12.112;2023-02-12T12:52:36;99752.28;;;10.59;67.22
21096;BME280;10706;49.036;12.112;2023-02-12T13:10:27;99758.09;;;12.00;63.74
21096;BME280;10706;49.036;12.112;2023-02-12T13:19:21;99745.50;;;10.93;64.60
21096;BME280;10706;49.036;12.112;2023-02-12T13:24:50;99746.00;;;11.18;63.93
21096;BME280;10706;49.036;12.112;2023-02-12T13:27:34;99750.00;;;11.07;64.67
21096;BME280;10706;49.036;12.112;2023-02-12T13:30:22;99738.44;;;11.43;63.91
21096;BME280;10706;49.036;12.112;2023-02-12T13:33:16;99739.63;;;12.05;61.39
21096;BME280;10706;49.036;12.112;2023-02-12T13:35:47;99738.13;;;12.03;62.19
21096;BME280;10706;49.036;12.112;2023-02-12T13:38:24;99733.56;;;13.21;59.42
21096;BME280;10706;49.036;12.112;2023-02-12T13:41:06;99734.03;;;14.18;55.12
21096;BME280;10706;49.036;12.112;2023-02-12T13:47:04;99735.84;;;14.58;53.74
21096;BME280;10706;49.036;12.112;2023-02-12T13:49:48;99742.13;;;14.12;53.16
21096;BME280;10706;49.036;12.112;2023-02-12T13:55:32;99741.16;;;13.11;56.31
21096;BME280;10706;49.036;12.112;2023-02-12T14:03:36;99740.25;;;12.08;59.48
21096;BME280;10706;49.036;12.112;2023-02-12T14:06:14;99737.91;;;11.98;59.87
21096;BME280;10706;49.036;12.112;2023-02-12T14:08:50;99735.38;;;11.68;60.52
21096;BME280;10706;49.036;12.112;2023-02-12T14:11:20;99738.00;;;11.40;61.07
21096;BME280;10706;49.036;12.112;2023-02-12T14:14:01;99738.38;;;11.37;61.14
21096;BME280;10706;49.036;12.112;2023-02-12T14:19:36;99740.03;;;10.35;65.25
21096;BME280;10706;49.036;12.112;2023-02-12T14:22:11;99737.13;;;10.07;65.99
21096;BME280;10706;49.036;12.112;2023-02-12T14:24:49;99728.16;;;9.85;67.84
21096;BME280;10706;49.036;12.112;2023-02-12T14:30:38;99728.53;;;9.82;68.75
21096;BME280;10706;49.036;12.112;2023-02-12T14:35:42;99722.91;;;9.39;69.89
21096;BME280;10706;49.036;12.112;2023-02-12T14:40:49;99717.94;;;9.04;71.33
21096;BME280;10706;49.036;12.112;2023-02-12T14:46:46;99722.94;;;8.76;72.18
21096;BME280;10706;49.036;12.112;2023-02-12T14:49:35;99721.69;;;8.55;73.11
21096;BME280;10706;49.036;12.112;2023-02-12T15:00:37;99721.25;;;8.35;74.28
21096;BME280;10706;49.036;12.112;2023-02-12T15:08:40;99722.13;;;8.03;74.83
21096;BME280;10706;49.036;12.112;2023-02-12T15:11:43;99714.88;;;7.89;76.48
21096;BME280;10706;49.036;12.112;2023-02-12T15:14:26;99716.47;;;8.23;74.98
21096;BME280;10706;49.036;12.112;2023-02-12T15:17:14;99709.91;;;8.50;73.68
21096;BME280;10706;49.036;12.112;2023-02-12T15:19:58;99706.34;;;8.66;74.44
21096;BME280;10706;49.036;12.112;2023-02-12T15:22:53;99710.88;;;8.88;73.44
21096;BME280;10706;49.036;12.112;2023-02-12T15:25:44;99710.81;;;9.28;71.88
21096;BME280;10706;49.036;12.112;2023-02-12T15:28:24;99712.22;;;9.15;70.71
21096;BME280;10706;49.036;12.112;2023-02-12T15:30:55;99706.41;;;9.12;71.65
21096;BME280;10706;49.036;12.112;2023-02-12T15:33:34;99706.81;;;9.01;71.91
21096;BME280;10706;49.036;12.112;2023-02-12T15:36:02;99718.63;;;8.67;72.40
21096;BME280;10706;49.036;12.112;2023-02-12T15:38:38;99706.56;;;8.56;73.13
21096;BME280;10706;49.036;12.112;2023-02-12T15:41:07;99707.09;;;8.35;74.66
21096;BME280;10706;49.036;12.112;2023-02-12T15:43:39;99707.28;;;8.33;73.85
21096;BME280;10706;49.036;12.112;2023-02-12T15:46:12;99700.66;;;8.21;75.48
21096;BME280;10706;49.036;12.112;2023-02-12T15:48:39;99707.66;;;8.14;75.19
21096;BME280;10706;49.036;12.112;2023-02-12T15:53:42;99702.91;;;7.60;76.70
21096;BME280;10706;49.036;12.112;2023-02-12T15:56:14;99703.94;;;7.51;76.47
21096;BME280;10706;49.036;12.112;2023-02-12T15:58:58;99708.22;;;7.35;77.82
21096;BME280;10706;49.036;12.112;2023-02-12T16:01:32;99704.56;;;7.20;78.02
21096;BME280;10706;49.036;12.112;2023-02-12T16:04:04;99705.41;;;7.04;79.57
21096;BME280;10706;49.036;12.112;2023-02-12T16:06:37;99701.38;;;6.84;80.22